Time;durP1;ratioP1;P1;durP2;ratioP2;P2;SDS_P1;SDS_P2;PMS_P1;PMS_P2;Temp;Humidity;BMP_temperature;BMP_pressure;BME280_temperature;BME280_humidity;BME280_pressure;Samples;Min_cycle;Max_cycle;Signal;HPM_P1;HPM_P2
2022/02/26 00:02:12;;;;;;;41.33;20.62;;;;;;;1.67;69.91;97988.41;1701934;83;21467;-83
2022/02/26 00:04:38;;;;;;;39.10;19.67;;;;;;;1.70;69.93;97987.99;1701334;84;21023;-83
2022/02/26 00:07:05;;;;;;;40.35;19.80;;;;;;;1.67;69.98;97998.41;1701195;84;21035;-81
2022/02/26 00:09:31;;;;;;;36.33;18.92;;;;;;;1.65;70.00;97997.96;1701965;84;21083;-81
2022/02/26 00:11:58;;;;;;;39.53;19.75;;;;;;;1.62;70.08;97991.44;1714377;83;21054;-81
2022/02/26 00:14:25;;;;;;;35.83;17.52;;;;;;;1.62;69.87;98005.80;1701588;84;21409;-81
2022/02/26 00:16:51;;;;;;;38.63;18.17;;;;;;;1.58;69.77;98000.55;1701188;84;21031;-81
2022/02/26 00:19:18;;;;;;;35.85;18.05;;;;;;;1.58;69.82;98010.14;1701815;84;21039;-81
2022/02/26 00:21:45;;;;;;;32.83;16.30;;;;;;;1.55;69.79;98009.69;1701739;84;21007;-81
2022/02/26 00:24:11;;;;;;;31.00;15.20;;;;;;;1.52;69.71;98007.46;1719498;83;20963;-81
2022/02/26 00:26:39;;;;;;;30.43;15.32;;;;;;;1.51;69.77;98011.83;1731029;83;20999;-81
2022/02/26 00:29:06;;;;;;;33.88;16.25;;;;;;;1.47;69.84;98009.17;1731084;83;21490;-82
2022/02/26 00:31:33;;;;;;;34.05;15.93;;;;;;;1.42;69.97;98006.09;1731090;83;20976;-81
2022/02/26 00:33:59;;;;;;;37.58;16.75;;;;;;;1.39;69.82;98014.34;1730975;83;21398;-81
2022/02/26 00:36:26;;;;;;;38.58;18.42;;;;;;;1.33;71.39;98012.58;1703921;83;20991;-82
2022/02/26 00:38:54;;;;;;;31.85;17.12;;;;;;;1.26;73.19;98013.38;1701924;84;21019;-82
2022/02/26 00:41:20;;;;;;;35.98;17.87;;;;;;;1.22;72.82;98014.20;1701776;84;21027;-82
2022/02/26 00:43:47;;;;;;;32.03;16.12;;;;;;;1.13;73.17;98017.63;1703933;83;20991;-81
2022/02/26 00:46:14;;;;;;;27.00;15.10;;;;;;;1.08;73.44;98015.41;1701769;84;20960;-77
2022/02/26 00:51:26;;;;;;;27.77;13.28;;;;;;;1.04;72.87;98023.64;1701965;84;20975;-78
2022/02/26 00:53:52;;;;;;;24.18;12.70;;;;;;;1.05;72.12;98021.47;1717135;83;21067;-77
2022/02/26 00:56:19;;;;;;;28.25;12.60;;;;;;;1.07;71.55;98021.49;1709250;83;21011;-78
2022/02/26 00:58:45;;;;;;;23.77;12.50;;;;;;;1.08;71.50;98021.93;1701866;84;21007;-78
2022/02/26 01:01:12;;;;;;;22.27;12.18;;;;;;;1.06;71.38;98020.61;1701890;84;21038;-77
2022/02/26 01:03:40;;;;;;;21.73;12.00;;;;;;;1.04;71.20;98019.28;1705453;84;21023;-78
2022/02/26 01:06:07;;;;;;;23.52;12.10;;;;;;;1.01;71.23;98025.80;1731022;82;21455;-78
2022/02/26 01:08:33;;;;;;;25.90;12.93;;;;;;;0.97;71.21;98025.31;1715605;82;20960;-78
2022/02/26 01:11:00;;;;;;;33.83;12.68;;;;;;;0.95;71.00;98028.78;1742596;82;21007;-78
2022/02/26 01:13:27;;;;;;;33.02;13.35;;;;;;;0.94;71.22;98023.09;1742696;82;21046;-78
2022/02/26 01:15:53;;;;;;;26.33;13.15;;;;;;;0.93;72.90;98022.23;1742792;82;21031;-78
2022/02/26 01:18:19;;;;;;;27.48;13.18;;;;;;;0.90;71.66;98023.50;1738276;82;20995;-78
2022/02/26 01:20:46;;;;;;;24.72;13.53;;;;;;;0.86;71.35;98028.23;1742727;82;20998;-78
2022/02/26 01:23:13;;;;;;;26.82;13.35;;;;;;;0.83;71.26;98027.77;1738670;81;21418;-78
2022/02/26 01:25:40;;;;;;;27.30;12.80;;;;;;;0.85;71.49;98031.30;1728052;83;21016;-78
2022/02/26 01:28:06;;;;;;;22.80;10.75;;;;;;;0.89;71.68;98029.16;1733892;82;21058;-78
2022/02/26 01:30:33;;;;;;;29.00;12.13;;;;;;;0.88;72.21;98035.22;1742521;82;21010;-78
2022/02/26 01:32:59;;;;;;;23.75;11.75;;;;;;;0.88;72.28;98036.52;1742728;82;20963;-78
2022/02/26 01:35:26;;;;;;;25.45;12.47;;;;;;;0.84;74.51;98037.38;1742588;82;20998;-78
2022/02/26 01:37:52;;;;;;;29.87;13.13;;;;;;;0.80;72.86;98032.98;1730603;82;21010;-78
2022/02/26 01:40:19;;;;;;;23.05;11.80;;;;;;;0.81;72.70;98035.14;1713243;84;20998;-78
2022/02/26 01:42:47;;;;;;;23.92;12.35;;;;;;;0.82;72.77;98033.00;1713258;84;20967;-78
2022/02/26 01:45:17;;;;;;;27.32;13.55;;;;;;;0.83;72.58;98036.05;1713352;82;20963;-78
2022/02/26 01:47:44;;;;;;;26.00;13.28;;;;;;;0.84;72.60;98036.08;1742610;82;21416;-78
2022/02/26 01:50:14;;;;;;;26.70;13.83;;;;;;;0.84;73.24;98038.69;1742639;82;21026;-78
2022/02/26 01:52:40;;;;;;;27.13;12.70;;;;;;;0.86;72.46;98033.03;1742523;82;21018;-78
2022/02/26 01:55:08;;;;;;;26.15;13.35;;;;;;;0.91;72.52;98044.39;1742589;82;21027;-78
2022/02/26 01:57:35;;;;;;;26.65;13.62;;;;;;;0.94;72.25;98047.45;1718739;82;21464;-78
2022/02/26 02:00:06;;;;;;;30.80;15.55;;;;;;;0.93;73.52;98045.72;1742608;82;21355;-78
2022/02/26 02:02:33;;;;;;;29.10;15.08;;;;;;;0.93;73.18;98048.33;1742563;82;21046;-77
2022/02/26 02:05:01;;;;;;;26.87;14.95;;;;;;;0.83;74.93;98046.03;1735150;81;21054;-77
2022/02/26 02:07:30;;;;;;;30.50;14.58;;;;;;;0.80;74.29;98032.98;1732928;83;20996;-78
2022/02/26 02:09:56;;;;;;;26.17;14.90;;;;;;;0.77;74.11;98040.77;1729208;83;21484;-78
2022/02/26 02:12:24;;;;;;;31.20;15.13;;;;;;;0.73;73.82;98041.17;1704079;84;21025;-78
2022/02/26 02:14:50;;;;;;;30.30;15.28;;;;;;;0.72;73.62;98042.03;1703991;84;21035;-78
2022/02/26 02:17:17;;;;;;;27.95;14.30;;;;;;;0.75;73.54;98043.80;1676294;85;21499;-78
2022/02/26 02:19:44;;;;;;;30.57;15.20;;;;;;;0.78;73.45;98040.78;1703738;84;21063;-77
2022/02/26 02:22:11;;;;;;;32.28;15.60;;;;;;;0.79;73.46;98039.92;1719387;83;20988;-77
2022/02/26 02:24:38;;;;;;;31.42;15.15;;;;;;;0.82;73.14;98035.61;1694978;85;21023;-78
2022/02/26 02:27:04;;;;;;;27.17;15.15;;;;;;;0.86;73.17;98043.89;1700936;84;21008;-78
2022/02/26 02:29:31;;;;;;;31.07;15.20;;;;;;;0.88;73.22;98043.05;1735346;83;21027;-77
2022/02/26 02:31:57;;;;;;;32.50;15.93;;;;;;;0.90;73.29;98043.95;1704695;84;21426;-77
2022/02/26 02:34:24;;;;;;;33.30;16.37;;;;;;;0.93;73.19;98043.11;1735227;83;21019;-77
2022/02/26 02:36:51;;;;;;;28.15;15.63;;;;;;;0.96;73.00;98048.78;1682546;84;21016;-77
2022/02/26 02:39:17;;;;;;;32.20;16.50;;;;;;;0.99;72.90;98047.52;1706073;84;21410;-77
2022/02/26 02:41:45;;;;;;;36.58;16.70;;;;;;;0.98;72.82;98047.94;1705855;84;21016;-77
2022/02/26 02:44:13;;;;;;;32.17;15.50;;;;;;;0.99;72.85;98045.77;1704079;84;21031;-77
2022/02/26 02:46:43;;;;;;;34.88;17.10;;;;;;;0.98;72.90;98043.14;1706016;84;20985;-77
2022/02/26 02:49:12;;;;;;;32.03;16.30;;;;;;;0.98;72.89;98047.94;1706192;84;21454;-77
2022/02/26 02:51:39;;;;;;;28.12;15.05;;;;;;;0.95;72.84;98047.90;1706000;84;21041;-77
2022/02/26 02:54:06;;;;;;;33.13;16.35;;;;;;;0.96;72.74;98047.48;1706118;84;21017;-77
2022/02/26 02:56:32;;;;;;;36.20;17.02;;;;;;;0.92;72.93;98042.67;1705954;84;21029;-77
2022/02/26 02:58:59;;;;;;;31.95;16.40;;;;;;;0.90;73.60;98040.04;1735214;83;21388;-77
2022/02/26 03:01:25;;;;;;;32.85;17.90;;;;;;;0.94;73.03;98039.63;1704681;84;21044;-77
2022/02/26 03:03:53;;;;;;;34.48;16.30;;;;;;;0.92;73.67;98041.36;1735970;82;21198;-77
2022/02/26 03:06:24;;;;;;;31.05;15.80;;;;;;;0.93;73.98;98045.72;1739927;82;21002;-77
2022/02/26 03:08:50;;;;;;;36.68;16.40;;;;;;;0.95;73.71;98047.05;1734046;82;21024;-78
2022/02/26 03:11:19;;;;;;;30.88;15.78;;;;;;;0.95;73.75;98043.98;1738226;82;21482;-77
2022/02/26 03:13:46;;;;;;;32.08;16.32;;;;;;;0.96;73.36;98046.17;1738321;82;21513;-77
2022/02/26 03:16:15;;;;;;;32.95;16.20;;;;;;;0.95;73.60;98048.34;1738124;82;21023;-79
2022/02/26 03:18:42;;;;;;;29.48;14.75;;;;;;;0.90;75.12;98049.17;1738214;82;21394;-79
2022/02/26 03:21:10;;;;;;;29.72;14.58;;;;;;;0.86;75.19;98050.41;1722701;82;21008;-78
2022/02/26 03:23:36;;;;;;;28.07;14.40;;;;;;;0.90;74.45;98045.26;1704694;83;20994;-78
2022/02/26 03:26:04;;;;;;;30.57;14.38;;;;;;;0.92;74.23;98053.11;1680556;85;21004;-78
2022/02/26 03:28:30;;;;;;;29.15;13.60;;;;;;;0.91;74.42;98052.64;1703102;84;21568;-77
2022/02/26 03:30:57;;;;;;;27.52;14.63;;;;;;;0.95;74.04;98060.95;1680540;85;20987;-78
2022/02/26 03:33:23;;;;;;;23.70;12.70;;;;;;;0.97;74.30;98067.08;1704106;83;21425;-78
2022/02/26 03:35:50;;;;;;;26.80;12.98;;;;;;;0.99;73.86;98070.56;1710476;84;20992;-78
2022/02/26 03:38:16;;;;;;;27.98;14.28;;;;;;;1.03;74.57;98074.95;1710318;84;20988;-78
2022/02/26 03:40:43;;;;;;;25.48;13.83;;;;;;;1.02;73.97;98074.52;1710414;84;21012;-78
2022/02/26 03:43:10;;;;;;;26.05;13.80;;;;;;;1.04;74.19;98086.28;1710324;83;21124;-79
2022/02/26 03:45:37;;;;;;;25.68;13.55;;;;;;;1.05;73.77;98083.66;1709767;83;21005;-79
2022/02/26 03:48:04;;;;;;;26.87;13.30;;;;;;;1.08;73.71;98086.73;1709550;84;21078;-79
2022/02/26 03:50:31;;;;;;;27.77;13.60;;;;;;;1.08;73.48;98081.52;1709431;84;21023;-79
2022/02/26 03:52:57;;;;;;;23.92;13.08;;;;;;;1.11;73.54;98085.47;1709292;84;21059;-79
2022/02/26 03:55:24;;;;;;;27.27;13.18;;;;;;;1.13;73.46;98090.27;1739042;82;21000;-79
2022/02/26 03:57:50;;;;;;;25.40;14.25;;;;;;;1.14;73.58;98099.88;1734925;82;21027;-79
2022/02/26 04:00:17;;;;;;;28.12;13.30;;;;;;;1.17;73.39;98105.55;1704389;84;20968;-79
2022/02/26 04:02:44;;;;;;;27.15;13.88;;;;;;;1.14;73.42;98110.31;1704412;84;21495;-78
2022/02/26 04:05:12;;;;;;;25.35;13.28;;;;;;;1.15;73.52;98111.17;1704149;84;21036;-78
2022/02/26 04:07:40;;;;;;;26.20;13.45;;;;;;;1.15;74.08;98108.14;1704203;84;21067;-79
2022/02/26 04:10:08;;;;;;;28.52;13.55;;;;;;;1.13;74.28;98106.38;1711215;83;21007;-78
2022/02/26 04:12:35;;;;;;;29.25;14.15;;;;;;;1.10;74.04;98105.03;1703236;84;21021;-78
2022/02/26 04:15:02;;;;;;;28.80;14.70;;;;;;;1.08;73.98;98111.53;1678572;85;21059;-79
2022/02/26 04:17:29;;;;;;;28.55;14.13;;;;;;;1.08;74.12;98106.76;1705871;84;21001;-79
2022/02/26 04:19:57;;;;;;;35.13;13.83;;;;;;;1.09;73.58;98111.11;1691593;84;21344;-78
2022/02/26 04:22:23;;;;;;;34.30;14.15;;;;;;;1.10;73.44;98116.36;1691156;84;21047;-78
2022/02/26 04:24:50;;;;;;;25.90;13.78;;;;;;;1.10;73.44;98117.66;1709952;84;21429;-78
2022/02/26 04:27:16;;;;;;;30.88;13.50;;;;;;;1.11;73.73;98121.13;1709943;84;21010;-79
2022/02/26 04:29:43;;;;;;;27.22;13.50;;;;;;;1.12;73.36;98118.98;1709936;84;21043;-78
2022/02/26 04:32:09;;;;;;;29.07;13.98;;;;;;;1.08;73.34;98114.59;1712716;82;21092;-78
2022/02/26 04:34:35;;;;;;;29.10;13.93;;;;;;;1.06;73.47;98115.88;1710359;84;21578;-78
2022/02/26 04:37:03;;;;;;;26.68;13.30;;;;;;;1.04;73.58;98118.91;1710486;84;21040;-79
2022/02/26 04:39:30;;;;;;;26.15;13.43;;;;;;;1.00;73.68;98115.82;1722017;82;21466;-79
2022/02/26 04:41:56;;;;;;;25.60;13.15;;;;;;;0.98;73.54;98120.13;1733347;83;21047;-77
2022/02/26 04:44:23;;;;;;;25.02;13.15;;;;;;;0.95;73.50;98122.27;1733581;83;20989;-77
2022/02/26 04:46:49;;;;;;;25.43;12.47;;;;;;;0.90;73.45;98126.56;1727176;82;20995;-77
2022/02/26 04:49:16;;;;;;;25.70;12.95;;;;;;;0.84;73.41;98126.09;1725139;83;21047;-76
2022/02/26 04:51:42;;;;;;;21.97;11.88;;;;;;;0.84;73.47;98131.72;1725347;83;21406;-76
2022/02/26 04:54:09;;;;;;;23.70;11.15;;;;;;;0.82;73.58;98133.45;1726351;82;21060;-77
2022/02/26 04:56:35;;;;;;;22.10;11.88;;;;;;;0.81;73.90;98131.67;1725678;83;21003;-77
2022/02/26 04:59:02;;;;;;;27.82;12.43;;;;;;;0.81;73.52;98129.95;1725341;83;21024;-77
2022/02/26 05:01:29;;;;;;;21.73;12.00;;;;;;;0.80;73.53;98137.34;1725261;82;20989;-77
2022/02/26 05:03:56;;;;;;;21.80;12.00;;;;;;;0.76;73.66;98137.74;1725495;82;21441;-77
2022/02/26 05:06:23;;;;;;;28.42;12.30;;;;;;;0.76;73.58;98144.27;1719676;82;21035;-77
2022/02/26 05:08:50;;;;;;;27.00;11.83;;;;;;;0.75;73.55;98141.63;1713090;84;21023;-77
2022/02/26 05:11:16;;;;;;;24.70;12.50;;;;;;;0.73;73.56;98151.16;1713178;84;21058;-77
2022/02/26 05:13:42;;;;;;;27.98;12.55;;;;;;;0.72;73.58;98151.60;1733941;82;21067;-77
2022/02/26 05:16:09;;;;;;;20.52;11.28;;;;;;;0.69;73.71;98147.64;1739216;82;21063;-77
2022/02/26 05:18:35;;;;;;;22.40;12.80;;;;;;;0.68;73.66;98155.44;1739293;82;21481;-81
2022/02/26 05:21:02;;;;;;;24.18;11.53;;;;;;;0.70;74.05;98155.05;1739327;82;20984;-79
2022/02/26 05:23:29;;;;;;;22.00;11.78;;;;;;;0.70;74.24;98146.77;1728682;82;21050;-77
2022/02/26 05:25:55;;;;;;;23.62;11.90;;;;;;;0.71;73.98;98158.95;1702404;84;21368;-77
2022/02/26 05:28:22;;;;;;;25.43;10.98;;;;;;;0.72;73.84;98160.73;1702362;84;21023;-77
2022/02/26 05:30:48;;;;;;;27.45;11.30;;;;;;;0.71;73.98;98163.31;1702217;84;21004;-77
2022/02/26 05:33:15;;;;;;;22.75;12.28;;;;;;;0.70;73.90;98164.18;1702330;84;21043;-77
2022/02/26 05:35:41;;;;;;;23.00;11.45;;;;;;;0.72;73.98;98171.17;1728521;82;20984;-77
2022/02/26 05:38:08;;;;;;;20.32;11.33;;;;;;;0.73;73.92;98172.02;1705795;84;21028;-77
2022/02/26 05:40:34;;;;;;;26.42;11.90;;;;;;;0.77;74.12;98180.34;1684372;85;21006;-77
2022/02/26 05:43:01;;;;;;;22.67;12.35;;;;;;;0.77;74.59;98178.63;1706065;84;21046;-77
2022/02/26 05:45:27;;;;;;;26.75;11.40;;;;;;;0.75;74.38;98182.92;1683039;84;21060;-78
2022/02/26 05:47:54;;;;;;;23.40;11.80;;;;;;;0.78;74.34;98188.20;1709885;84;21022;-78
2022/02/26 05:50:20;;;;;;;26.33;12.73;;;;;;;0.82;74.83;98186.94;1709798;84;21050;-77
2022/02/26 05:52:47;;;;;;;23.57;12.40;;;;;;;0.75;75.95;98189.89;1709887;84;21024;-77
2022/02/26 05:55:13;;;;;;;27.15;13.20;;;;;;;0.74;75.99;98190.73;1709986;84;21059;-77
2022/02/26 05:57:40;;;;;;;22.45;11.90;;;;;;;0.78;75.25;98195.13;1709990;84;21457;-77
2022/02/26 06:00:08;;;;;;;22.35;11.78;;;;;;;0.79;74.84;98195.16;1709731;84;21091;-77
2022/02/26 06:02:35;;;;;;;24.07;13.00;;;;;;;0.79;75.13;98202.13;1709981;84;21378;-77
2022/02/26 06:05:02;;;;;;;26.97;13.30;;;;;;;0.79;75.26;98198.22;1707074;84;21060;-77
2022/02/26 06:07:30;;;;;;;24.10;12.28;;;;;;;0.79;74.97;98203.44;1682582;85;21467;-77
2022/02/26 06:09:57;;;;;;;24.50;12.18;;;;;;;0.85;74.67;98201.31;1711657;84;20996;-78
2022/02/26 06:12:25;;;;;;;26.82;13.20;;;;;;;0.94;74.47;98210.98;1733161;83;21453;-78
2022/02/26 06:14:51;;;;;;;25.85;12.58;;;;;;;1.01;74.42;98220.66;1713419;84;21058;-78
2022/02/26 06:17:18;;;;;;;24.65;12.05;;;;;;;1.06;74.51;98224.20;1684317;85;21041;-78
2022/02/26 06:19:44;;;;;;;21.05;11.22;;;;;;;1.13;74.57;98231.68;1731208;83;21413;-78
2022/02/26 06:22:11;;;;;;;22.00;12.18;;;;;;;1.18;74.90;98237.41;1725709;83;21063;-78
2022/02/26 06:24:37;;;;;;;20.05;11.25;;;;;;;1.24;74.39;98237.89;1733210;82;21008;-78
2022/02/26 06:27:04;;;;;;;21.85;11.05;;;;;;;1.31;74.16;98239.73;1733130;82;21441;-77
2022/02/26 06:29:31;;;;;;;20.25;10.23;;;;;;;1.36;74.22;98235.86;1703255;83;21477;-78
2022/02/26 06:31:57;;;;;;;26.40;12.37;;;;;;;1.42;74.45;98241.59;1653915;87;21442;-77
2022/02/26 06:34:24;;;;;;;22.77;11.33;;;;;;;1.47;74.49;98249.05;1702448;84;21020;-78
2022/02/26 06:36:51;;;;;;;24.77;11.97;;;;;;;1.53;74.35;98248.25;1683068;85;21634;-78
2022/02/26 06:39:18;;;;;;;22.15;11.33;;;;;;;1.57;74.22;98246.98;1671827;85;21026;-78
2022/02/26 06:41:44;;;;;;;19.32;11.22;;;;;;;1.68;74.00;98256.66;1684377;85;21066;-79
2022/02/26 06:44:11;;;;;;;22.32;11.33;;;;;;;1.77;73.87;98253.25;1684496;84;21037;-79
2022/02/26 06:46:38;;;;;;;22.10;11.08;;;;;;;1.83;73.63;98255.50;1733208;83;21378;-79
2022/02/26 06:49:05;;;;;;;20.82;11.28;;;;;;;1.87;73.53;98259.02;1713402;84;21063;-78
2022/02/26 06:51:33;;;;;;;18.90;10.03;;;;;;;1.91;73.27;98256.02;1693915;84;21016;-78
2022/02/26 06:54:00;;;;;;;19.73;9.48;;;;;;;1.89;72.90;98265.56;1727401;83;21036;-78
2022/02/26 06:56:27;;;;;;;18.02;10.00;;;;;;;1.81;73.18;98270.72;1684328;85;21066;-78
2022/02/26 06:58:54;;;;;;;17.67;9.50;;;;;;;1.83;73.08;98282.09;1727576;83;21024;-78
2022/02/26 07:01:22;;;;;;;18.57;9.88;;;;;;;1.83;72.99;98279.47;1684131;85;21063;-78
2022/02/26 07:03:49;;;;;;;20.25;9.20;;;;;;;1.83;73.07;98277.72;1722927;83;21068;-77
2022/02/26 07:06:15;;;;;;;18.57;9.83;;;;;;;1.81;73.12;98275.95;1719735;81;21011;-77
2022/02/26 07:08:42;;;;;;;22.15;9.93;;;;;;;1.84;72.93;98282.08;1728898;83;21019;-78
2022/02/26 07:11:08;;;;;;;18.98;9.75;;;;;;;1.82;72.83;98288.14;1724733;82;21054;-78
2022/02/26 07:13:35;;;;;;;21.87;10.50;;;;;;;1.86;72.91;98286.02;1711507;84;21011;-78
2022/02/26 07:16:02;;;;;;;19.20;10.68;;;;;;;1.94;72.77;98296.13;1711272;84;21050;-79
2022/02/26 07:18:28;;;;;;;20.68;10.55;;;;;;;2.01;72.71;98300.09;1711352;84;20987;-79
2022/02/26 07:20:55;;;;;;;21.77;10.50;;;;;;;2.08;72.61;98300.63;1714771;81;21027;-79
2022/02/26 07:23:23;;;;;;;21.15;10.35;;;;;;;2.13;72.36;98301.54;1711362;84;21022;-79
2022/02/26 07:25:51;;;;;;;22.52;11.12;;;;;;;2.22;72.05;98299.02;1724771;81;20988;-76
2022/02/26 07:28:18;;;;;;;20.12;10.82;;;;;;;2.30;72.11;98299.50;1711343;83;21417;-76
2022/02/26 07:30:46;;;;;;;25.68;11.95;;;;;;;2.41;72.05;98302.21;1684580;84;21476;-76
2022/02/26 07:33:12;;;;;;;20.88;11.25;;;;;;;2.49;71.74;98296.17;1706014;84;21385;-76
2022/02/26 07:35:39;;;;;;;22.20;11.50;;;;;;;2.56;71.47;98303.64;1706013;84;21445;-78
2022/02/26 07:38:07;;;;;;;19.27;11.40;;;;;;;2.61;71.39;98304.55;1718152;83;21035;-79
2022/02/26 07:40:41;;;;;;;20.88;11.93;;;;;;;2.67;71.44;98306.34;1725223;83;21060;-79
2022/02/26 07:43:07;;;;;;;27.20;12.75;;;;;;;2.74;71.06;98313.36;1705210;83;21408;-79
2022/02/26 07:45:35;;;;;;;20.90;12.07;;;;;;;2.72;70.71;98304.63;1735254;83;21059;-77
2022/02/26 07:48:01;;;;;;;23.07;12.13;;;;;;;2.77;70.93;98312.08;1735389;83;21035;-77
2022/02/26 07:50:29;;;;;;;25.57;13.48;;;;;;;2.75;70.37;98307.25;1710358;83;20964;-78
2022/02/26 07:52:56;;;;;;;22.65;12.37;;;;;;;2.75;70.32;98308.56;1710898;81;21032;-78
2022/02/26 07:55:23;;;;;;;24.07;12.37;;;;;;;2.77;70.47;98319.05;1732980;83;20983;-78
2022/02/26 07:57:49;;;;;;;23.32;10.95;;;;;;;2.76;70.20;98301.17;1734751;83;21003;-78
2022/02/26 08:00:16;;;;;;;21.23;11.93;;;;;;;2.81;69.97;98318.20;1731613;83;21090;-77
2022/02/26 08:02:44;;;;;;;23.65;13.13;;;;;;;2.83;69.60;98309.92;1705784;84;21453;-77
2022/02/26 08:05:10;;;;;;;22.62;11.43;;;;;;;2.87;69.91;98313.00;1720407;83;21039;-79
2022/02/26 08:07:37;;;;;;;22.90;11.35;;;;;;;2.96;70.10;98320.48;1735083;83;21007;-79
2022/02/26 08:10:05;;;;;;;20.17;11.08;;;;;;;3.03;70.04;98320.53;1733439;81;21023;-78
2022/02/26 08:12:32;;;;;;;20.88;11.20;;;;;;;3.13;69.57;98325.82;1726843;81;20990;-78
2022/02/26 08:14:58;;;;;;;20.10;11.45;;;;;;;3.19;69.02;98327.61;1738892;82;20983;-78
2022/02/26 08:17:25;;;;;;;24.57;11.60;;;;;;;3.26;69.45;98334.62;1726060;82;20994;-78
2022/02/26 08:19:51;;;;;;;21.85;11.70;;;;;;;3.31;68.74;98328.97;1723094;83;21477;-77
2022/02/26 08:22:18;;;;;;;21.23;12.03;;;;;;;3.34;68.56;98333.34;1710132;84;20956;-84
2022/02/26 08:24:45;;;;;;;19.70;11.05;;;;;;;3.33;67.83;98335.53;1707452;82;21055;-85
2022/02/26 08:27:12;;;;;;;22.27;11.50;;;;;;;3.31;67.32;98331.59;1703377;84;21067;-79
2022/02/26 08:29:40;;;;;;;25.52;13.78;;;;;;;3.37;68.32;98339.92;1709879;83;21013;-80
2022/02/26 08:32:08;;;;;;;26.52;13.08;;;;;;;3.42;68.00;98339.52;1709945;84;21382;-83
2022/02/26 08:34:35;;;;;;;28.98;14.55;;;;;;;3.44;67.38;98341.69;1741215;82;21047;-83
2022/02/26 08:37:03;;;;;;;24.63;13.93;;;;;;;3.49;67.81;98346.52;1733699;83;21052;-83
2022/02/26 08:39:30;;;;;;;27.48;14.87;;;;;;;3.58;67.70;98348.75;1733311;83;21060;-83
2022/02/26 08:41:58;;;;;;;25.12;14.33;;;;;;;3.67;67.74;98341.81;1731103;82;20985;-76
2022/02/26 08:44:24;;;;;;;23.83;12.43;;;;;;;3.74;67.57;98341.38;1713845;83;21349;-76
2022/02/26 08:46:51;;;;;;;23.07;12.80;;;;;;;3.77;66.21;98344.44;1704773;84;21024;-75
2022/02/26 08:49:17;;;;;;;26.55;13.95;;;;;;;3.87;67.10;98354.12;1716052;83;21017;-76
2022/02/26 08:51:44;;;;;;;24.20;12.23;;;;;;;3.94;65.58;98355.88;1705048;83;20989;-76
2022/02/26 08:54:12;;;;;;;25.85;14.30;;;;;;;4.02;66.34;98351.09;1709150;84;21601;-76
2022/02/26 08:56:38;;;;;;;24.50;13.18;;;;;;;4.14;66.39;98356.78;1709685;84;21087;-76
2022/02/26 08:59:05;;;;;;;77.42;36.80;;;;;;;4.20;65.97;98351.57;1709779;84;21020;-77
2022/02/26 09:01:31;;;;;;;23.92;13.62;;;;;;;4.32;66.34;98356.83;1709651;84;21402;-76
2022/02/26 09:03:58;;;;;;;22.40;12.23;;;;;;;4.48;65.70;98350.27;1709981;84;21047;-76
2022/02/26 09:06:25;;;;;;;20.95;12.37;;;;;;;4.67;65.88;98352.48;1725465;83;21057;-76
2022/02/26 09:08:51;;;;;;;20.10;11.43;;;;;;;4.79;64.09;98348.09;1703736;84;21052;-76
2022/02/26 09:11:18;;;;;;;25.30;12.33;;;;;;;4.85;63.16;98352.91;1703828;84;20989;-76
2022/02/26 09:13:55;;;;;;;20.70;11.70;;;;;;;5.02;64.27;98358.16;1703681;84;21028;-77
2022/02/26 09:16:19;;;;;;;21.02;11.30;;;;;;;5.17;63.19;98356.38;1673944;84;21028;-76
2022/02/26 09:18:47;;;;;;;22.45;11.15;;;;;;;5.31;63.23;98354.17;1674027;86;21154;-76
2022/02/26 09:21:13;;;;;;;18.52;10.93;;;;;;;5.46;62.76;98354.12;1703661;84;21580;-77
2022/02/26 09:23:41;;;;;;;18.62;10.08;;;;;;;5.52;60.87;98354.09;1670169;86;21036;-77
2022/02/26 09:26:09;;;;;;;18.90;10.05;;;;;;;5.64;61.06;98365.44;1683312;85;21035;-77
2022/02/26 09:28:42;;;;;;;17.90;9.15;;;;;;;5.57;59.78;98368.98;1677925;84;21007;-77
2022/02/26 09:31:09;;;;;;;17.98;11.00;;;;;;;5.54;58.85;98363.29;1722938;83;21059;-77
2022/02/26 09:33:36;;;;;;;15.15;10.08;;;;;;;5.46;59.21;98371.63;1732937;83;21022;-76
2022/02/26 09:36:06;;;;;;;19.70;10.75;;;;;;;5.43;59.77;98372.98;1703611;84;21067;-76
2022/02/26 09:38:34;;;;;;;15.83;9.63;;;;;;;5.52;60.70;98369.01;1729004;83;21385;-75
2022/02/26 09:41:04;;;;;;;19.35;10.53;;;;;;;5.70;60.99;98374.64;1703694;84;21463;-77
2022/02/26 09:43:32;;;;;;;19.77;10.43;;;;;;;5.94;61.11;98372.79;1732943;83;21045;-77
2022/02/26 09:46:00;;;;;;;15.98;10.63;;;;;;;6.19;61.46;98370.91;1703702;84;21064;-77
2022/02/26 09:48:27;;;;;;;19.15;11.08;;;;;;;6.37;60.28;98376.96;1732947;83;21003;-75
2022/02/26 09:50:54;;;;;;;19.05;10.82;;;;;;;6.55;60.90;98379.02;1728384;83;20980;-76
2022/02/26 09:53:22;;;;;;;17.42;10.78;;;;;;;6.65;60.76;98377.21;1703822;84;21049;-75
2022/02/26 09:55:52;;;;;;;16.90;10.10;;;;;;;6.72;60.06;98377.58;1674009;86;21387;-76
2022/02/26 09:58:20;;;;;;;19.55;10.35;;;;;;;6.59;57.32;98379.44;1703847;84;21033;-76
2022/02/26 10:00:48;;;;;;;19.25;9.95;;;;;;;6.39;58.88;98377.81;1674202;86;21020;-76
2022/02/26 10:03:30;;;;;;;17.52;10.25;;;;;;;6.38;59.53;98381.34;1710575;83;20980;-76
2022/02/26 10:06:21;;;;;;;18.37;10.60;;;;;;;6.39;59.84;98379.59;1714471;82;20980;-76
2022/02/26 10:08:51;;;;;;;18.80;10.80;;;;;;;6.42;59.96;98383.07;1726342;82;21010;-75
2022/02/26 10:11:27;;;;;;;15.28;10.20;;;;;;;6.46;59.56;98381.28;1713301;84;21115;-76
2022/02/26 10:14:13;;;;;;;27.95;15.15;;;;;;;6.33;59.35;98380.49;1713328;84;21081;-76
2022/02/26 10:16:48;;;;;;;20.70;10.65;;;;;;;6.30;59.85;98378.76;1740209;82;20995;-76
2022/02/26 10:19:25;;;;;;;;;;;;;;;6.13;58.99;98380.17;1745537;82;21077;-76
2022/02/26 10:21:57;;;;;;;22.32;13.22;;;;;;;6.13;59.88;98379.28;1742872;82;20109;-75
2022/02/26 10:24:25;;;;;;;28.07;14.73;;;;;;;6.15;60.28;98391.55;1742701;82;21007;-75
2022/02/26 10:27:00;;;;;;;25.55;14.55;;;;;;;6.14;60.31;98387.63;1737184;82;21002;-76
2022/02/26 10:29:28;;;;;;;29.02;14.55;;;;;;;6.12;60.27;98387.64;1736328;82;21433;-76
2022/02/26 10:31:58;;;;;;;26.60;14.30;;;;;;;6.09;60.14;98388.95;1742708;82;21034;-76
2022/02/26 10:34:38;;;;;;;25.12;14.98;;;;;;;5.99;60.07;98385.48;1742752;82;20971;-76
2022/02/26 10:37:10;;;;;;;29.32;15.78;;;;;;;5.92;60.53;98382.00;1742813;82;21004;-76
2022/02/26 10:39:47;;;;;;;23.65;14.80;;;;;;;5.90;60.63;98382.42;1728638;82;21081;-76
2022/02/26 10:42:24;;;;;;;24.95;15.13;;;;;;;5.90;60.72;98381.57;1713184;84;21031;-76
2022/02/26 10:45:22;;;;;;;28.32;13.93;;;;;;;5.86;61.06;98379.37;1713149;84;21073;-76
2022/02/26 10:47:45;;;;;;;28.77;14.78;;;;;;;5.82;60.89;98384.23;1713502;84;21067;-77
2022/02/26 10:50:25;;;;;;;23.70;13.28;;;;;;;5.66;60.60;98390.84;1713427;82;21029;-75
2022/02/26 10:53:05;;;;;;;23.18;13.55;;;;;;;5.64;60.96;98391.73;1742728;82;21062;-76
2022/02/26 10:55:58;;;;;;;24.55;13.32;;;;;;;5.63;61.10;98394.81;1742743;82;20931;-76
2022/02/26 10:58:28;;;;;;;23.12;13.05;;;;;;;5.69;61.30;98392.59;1742779;82;21457;-76
2022/02/26 11:01:07;;;;;;;24.45;13.93;;;;;;;5.73;60.74;98394.79;1713788;82;21006;-76
2022/02/26 11:03:35;;;;;;;21.68;12.65;;;;;;;5.75;60.42;98394.33;1713315;84;21483;-77
2022/02/26 11:06:05;;;;;;;21.48;13.30;;;;;;;5.81;60.86;98392.98;1713186;84;20998;-77
2022/02/26 11:08:34;;;;;;;22.05;13.18;;;;;;;5.85;60.68;98388.61;1702655;83;21042;-76
2022/02/26 11:11:04;;;;;;;23.32;13.18;;;;;;;5.94;60.90;98385.95;1731007;83;20968;-76
2022/02/26 11:13:33;;;;;;;32.25;14.87;;;;;;;6.03;60.88;98393.80;1730831;83;21019;-76
2022/02/26 11:16:01;;;;;;;27.13;14.75;;;;;;;6.11;60.55;98385.89;1731081;83;21027;-76
2022/02/26 11:18:41;;;;;;;25.05;14.30;;;;;;;6.09;59.31;98388.95;1730907;83;20996;-77
2022/02/26 11:21:15;;;;;;;24.92;13.85;;;;;;;6.10;59.74;98389.84;1730130;83;21008;-75
2022/02/26 11:23:42;;;;;;;;;;;;;;;6.13;59.48;98388.49;1733168;83;20983;-74
2022/02/26 11:26:10;;;;;;;26.75;15.60;;;;;;;6.15;59.88;98389.38;1730920;83;20111;-74
2022/02/26 11:28:41;;;;;;;31.75;17.12;;;;;;;6.17;59.71;98387.59;1706813;83;21472;-75
2022/02/26 11:31:11;;;;;;;29.35;16.40;;;;;;;6.18;59.66;98385.39;1701847;84;21476;-75
2022/02/26 11:33:42;;;;;;;29.72;16.42;;;;;;;6.13;59.79;98384.55;1703764;83;21444;-75